Sibley, Illinois
Current Conditions -  °F | °C
As of 10:10 PM on Friday 24 Oct 2014 (Local Time) from KTIP Reporting Station
Haze Haze  
Wind Chill: 54°   Ceiling: 5000
Heat Index: 54°   Visibility: 4mi
Dew Point: 53°   Wind: 0mph
Humidity: 94%   Direction: NA
Pressure: 30"   Gusts: NA
Location:  40.59°N, 88.38°W
Report Text: KTIP 250310Z AUTO 00000KT 4SM BR OVC050 12/12 A3000 RMK AO2 T01240115
Loading
Personal Weather Stations






























Interactive Weather Map
Tropical Storm Tracking
New forecast layout! Learn more

10-Day Weather Forecast

Advertisements
Track Severe Weather on mobile